Time;durP1;ratioP1;P1;durP2;ratioP2;P2;SDS_P1;SDS_P2;PMS_P1;PMS_P2;Temp;Humidity;BMP_temperature;BMP_pressure;BME280_temperature;BME280_humidity;BME280_pressure;Samples;Min_cycle;Max_cycle;Signal;HPM_P1;HPM_P2
2023/05/03 00:01:40;;;;;;;;;;;18.00;69.70;;;;;;6244603;23;19908;-72
2023/05/03 00:04:07;;;;;;;;;;;18.00;70.50;;;;;;6218604;23;20335;-72
2023/05/03 00:06:34;;;;;;;;;;;18.00;70.30;;;;;;6217506;23;19958;-72
2023/05/03 00:09:01;;;;;;;;;;;18.00;70.00;;;;;;6244159;22;19904;-72
2023/05/03 00:11:28;;;;;;;;;;;18.00;69.90;;;;;;6244609;23;19904;-72
2023/05/03 00:13:54;;;;;;;;;;;18.10;69.70;;;;;;6244436;23;20274;-72
2023/05/03 00:16:21;;;;;;;;;;;18.10;69.50;;;;;;6244691;23;19912;-72
2023/05/03 00:18:48;;;;;;;;;;;18.20;69.50;;;;;;6244419;22;20239;-72
2023/05/03 00:21:15;;;;;;;;;;;18.20;69.50;;;;;;6217712;23;19974;-72
2023/05/03 00:23:41;;;;;;;;;;;18.30;68.40;;;;;;6218018;23;20263;-72
2023/05/03 00:26:08;;;;;;;;;;;18.50;67.40;;;;;;6244669;23;19910;-72
2023/05/03 00:28:35;;;;;;;;;;;18.40;68.10;;;;;;6218032;23;19908;-71
2023/05/03 00:31:08;;;;;;;;;;;18.50;68.10;;;;;;6244491;23;19962;-72
2023/05/03 00:33:38;;;;;;;;;;;18.50;67.40;;;;;;6244896;23;19911;-72
2023/05/03 00:36:10;;;;;;;;;;;18.50;67.40;;;;;;6244265;22;20327;-72
2023/05/03 00:38:37;;;;;;;;;;;18.60;67.00;;;;;;6244247;22;19916;-72
2023/05/03 00:41:04;;;;;;;;;;;18.60;66.90;;;;;;6219413;23;19904;-72
2023/05/03 00:43:31;;;;;;;;;;;18.60;65.70;;;;;;6246137;23;19908;-72
2023/05/03 00:46:04;;;;;;;;;;;18.60;66.20;;;;;;6219644;23;19942;-72
2023/05/03 00:48:30;;;;;;;;;;;18.70;66.20;;;;;;6220166;23;19904;-72
2023/05/03 00:50:57;;;;;;;;;;;18.80;65.00;;;;;;6219325;23;19908;-72
2023/05/03 00:53:24;;;;;;;;;;;18.80;64.20;;;;;;6246436;23;20277;-72
2023/05/03 00:55:51;;;;;;;;;;;18.70;64.40;;;;;;6219275;23;20239;-70
2023/05/03 00:58:18;;;;;;;;;;;18.80;64.30;;;;;;6245959;22;20383;-72
2023/05/03 01:00:44;;;;;;;;;;;18.80;64.70;;;;;;6219199;23;19904;-72
2023/05/03 01:03:12;;;;;;;;;;;18.90;63.90;;;;;;6246045;23;19907;-70
2023/05/03 01:05:42;;;;;;;;;;;18.90;63.80;;;;;;6246291;23;19907;-71
2023/05/03 01:08:14;;;;;;;;;;;18.90;63.30;;;;;;6219552;23;19904;-72
2023/05/03 01:10:59;;;;;;;;;;;18.90;63.10;;;;;;6219685;23;19904;-72
2023/05/03 01:13:26;;;;;;;;;;;18.90;62.40;;;;;;6246089;23;19904;-72
2023/05/03 01:16:10;;;;;;;;;;;18.90;61.90;;;;;;6245228;23;19915;-72
2023/05/03 01:18:38;;;;;;;;;;;19.10;61.20;;;;;;6245779;22;19908;-71
2023/05/03 01:21:05;;;;;;;;;;;19.10;60.20;;;;;;6245862;23;20246;-71
2023/05/03 01:23:38;;;;;;;;;;;19.10;59.50;;;;;;6246192;23;20196;-70
2023/05/03 01:26:17;;;;;;;;;;;19.20;55.90;;;;;;6246007;23;19942;-72
2023/05/03 01:28:44;;;;;;;;;;;19.30;55.80;;;;;;6219137;23;19950;-71
2023/05/03 01:31:10;;;;;;;;;;;19.30;56.50;;;;;;6219189;23;19914;-72
2023/05/03 01:33:40;;;;;;;;;;;19.30;56.20;;;;;;6219154;23;19908;-71
2023/05/03 01:36:15;;;;;;;;;;;19.30;55.30;;;;;;6219038;22;19916;-71
2023/05/03 01:38:42;;;;;;;;;;;19.40;55.30;;;;;;6219281;23;20353;-71
2023/05/03 01:41:09;;;;;;;;;;;19.50;53.30;;;;;;6218953;23;19951;-71
2023/05/03 01:43:36;;;;;;;;;;;19.50;53.20;;;;;;6219215;23;19911;-71
2023/05/03 01:46:03;;;;;;;;;;;19.50;53.10;;;;;;6218985;23;19966;-72
2023/05/03 01:48:30;;;;;;;;;;;19.40;52.50;;;;;;6245571;22;20571;-71
2023/05/03 01:50:56;;;;;;;;;;;19.50;53.00;;;;;;6193226;23;19910;-71
2023/05/03 01:53:23;;;;;;;;;;;19.40;53.10;;;;;;6245765;23;19919;-72
2023/05/03 01:55:50;;;;;;;;;;;19.50;53.40;;;;;;6245391;23;19919;-72
2023/05/03 01:58:17;;;;;;;;;;;19.50;52.70;;;;;;6245631;22;19908;-72
2023/05/03 02:00:45;;;;;;;;;;;19.70;50.60;;;;;;6245640;23;19983;-72
2023/05/03 02:03:11;;;;;;;;;;;19.80;50.20;;;;;;6245521;23;19998;-71
2023/05/03 02:05:38;;;;;;;;;;;19.90;48.60;;;;;;6245274;23;19955;-71
2023/05/03 02:08:05;;;;;;;;;;;19.90;49.00;;;;;;6245328;22;19904;-71
2023/05/03 02:10:32;;;;;;;;;;;19.80;49.40;;;;;;6245661;23;19982;-72
2023/05/03 02:12:59;;;;;;;;;;;19.80;49.80;;;;;;6245445;23;19911;-72
2023/05/03 02:15:26;;;;;;;;;;;19.80;51.10;;;;;;6244652;23;20314;-71
2023/05/03 02:17:53;;;;;;;;;;;19.80;50.70;;;;;;6244162;22;19904;-71
2023/05/03 02:20:19;;;;;;;;;;;19.80;50.60;;;;;;6244665;23;20290;-72
2023/05/03 02:22:46;;;;;;;;;;;19.80;50.40;;;;;;6245402;23;20243;-72
2023/05/03 02:25:13;;;;;;;;;;;19.80;50.30;;;;;;6243053;23;19978;-72
2023/05/03 02:27:40;;;;;;;;;;;19.80;48.90;;;;;;6244035;22;19910;-72
2023/05/03 02:30:07;;;;;;;;;;;19.80;48.90;;;;;;6244793;23;20293;-71
2023/05/03 02:32:34;;;;;;;;;;;19.80;47.70;;;;;;6244212;23;19908;-71
2023/05/03 02:35:01;;;;;;;;;;;19.90;47.70;;;;;;6242656;23;19916;-71
2023/05/03 02:37:28;;;;;;;;;;;19.80;47.90;;;;;;6243687;22;19915;-72
2023/05/03 02:39:55;;;;;;;;;;;19.90;48.70;;;;;;6245251;23;19904;-72
2023/05/03 02:42:21;;;;;;;;;;;20.00;48.40;;;;;;6244800;23;19907;-72
2023/05/03 02:44:48;;;;;;;;;;;20.00;48.60;;;;;;6245251;23;19957;-72
2023/05/03 02:47:15;;;;;;;;;;;19.90;48.50;;;;;;6245476;22;19908;-72
2023/05/03 02:49:42;;;;;;;;;;;19.90;47.70;;;;;;6245067;23;19903;-72
2023/05/03 02:52:09;;;;;;;;;;;19.90;48.40;;;;;;6245072;23;19910;-72
2023/05/03 02:54:35;;;;;;;;;;;19.90;48.70;;;;;;6244924;23;19923;-72
2023/05/03 02:57:03;;;;;;;;;;;20.00;48.40;;;;;;6245035;22;19916;-72
2023/05/03 02:59:31;;;;;;;;;;;20.10;46.40;;;;;;6245139;23;19957;-71
2023/05/03 03:01:58;;;;;;;;;;;20.20;46.20;;;;;;6244807;22;19938;-72
2023/05/03 03:04:25;;;;;;;;;;;20.20;45.40;;;;;;6245012;23;20227;-72
2023/05/03 03:06:55;;;;;;;;;;;20.10;46.10;;;;;;6245625;22;19907;-71
2023/05/03 03:09:22;;;;;;;;;;;20.10;44.80;;;;;;6244777;23;19958;-72
2023/05/03 03:11:50;;;;;;;;;;;20.10;45.60;;;;;;6245610;23;20341;-71
2023/05/03 03:14:17;;;;;;;;;;;20.10;46.00;;;;;;6218424;23;19912;-71
2023/05/03 03:16:44;;;;;;;;;;;20.20;43.40;;;;;;6245167;22;20306;-71
2023/05/03 10:55:19;;;;;;;;;;;17.70;52.40;;;;;;6271278;22;19930;-71
2023/05/03 10:57:47;;;;;;;;;;;17.60;53.30;;;;;;6271346;22;19985;-72
2023/05/03 11:00:17;;;;;;;;;;;17.50;52.70;;;;;;6271593;22;19965;-72
2023/05/03 11:03:08;;;;;;;;;;;17.50;51.90;;;;;;6245898;22;19907;-71
2023/05/03 11:05:35;;;;;;;;;;;17.50;51.80;;;;;;6253557;22;20364;-72
2023/05/03 11:08:11;;;;;;;;;;;17.50;51.60;;;;;;6271611;22;19942;-72
2023/05/03 11:10:38;;;;;;;;;;;17.40;51.30;;;;;;6244314;22;19911;-71
2023/05/03 11:13:05;;;;;;;;;;;17.40;51.40;;;;;;6270891;22;19915;-71
2023/05/03 11:15:32;;;;;;;;;;;17.40;51.40;;;;;;6271952;22;19915;-71
2023/05/03 11:17:59;;;;;;;;;;;17.40;50.70;;;;;;6272427;22;19977;-71
2023/05/03 11:20:26;;;;;;;;;;;17.40;50.50;;;;;;6272215;22;19914;-71
2023/05/03 11:22:53;;;;;;;;;;;17.30;51.10;;;;;;6270616;22;20297;-70
2023/05/03 11:25:20;;;;;;;;;;;17.40;50.70;;;;;;6270480;22;19915;-71
2023/05/03 11:27:46;;;;;;;;;;;17.30;50.60;;;;;;6271331;22;19977;-71
2023/05/03 11:30:13;;;;;;;;;;;17.30;50.50;;;;;;6272133;22;19903;-72
2023/05/03 11:32:43;;;;;;;;;;;17.30;50.70;;;;;;6271535;22;19935;-72
2023/05/03 11:35:10;;;;;;;;;;;17.30;50.30;;;;;;6273715;22;19911;-71
2023/05/03 11:37:37;;;;;;;;;;;17.20;51.10;;;;;;6247151;22;19907;-71
2023/05/03 11:40:05;;;;;;;;;;;17.20;50.20;;;;;;6274113;22;19957;-70
2023/05/03 11:42:32;;;;;;;;;;;17.20;49.80;;;;;;6274775;22;20373;-71
2023/05/03 11:45:00;;;;;;;;;;;17.20;49.50;;;;;;6274945;22;19910;-71
2023/05/03 11:47:27;;;;;;;;;;;17.20;49.70;;;;;;6274055;22;19933;-70
2023/05/03 11:49:54;;;;;;;;;;;17.20;49.30;;;;;;6246601;22;19899;-70
2023/05/03 11:52:24;;;;;;;;;;;17.20;49.30;;;;;;6275209;22;20267;-71
2023/05/03 11:54:51;;;;;;;;;;;17.10;50.10;;;;;;6274779;22;20330;-70
2023/05/03 11:57:18;;;;;;;;;;;17.10;49.30;;;;;;6274314;22;19904;-70
2023/05/03 11:59:45;;;;;;;;;;;17.10;48.80;;;;;;6274457;22;19978;-70
2023/05/03 12:02:12;;;;;;;;;;;17.10;48.40;;;;;;6247717;22;19986;-71
2023/05/03 12:04:42;;;;;;;;;;;17.10;48.70;;;;;;6274204;22;19903;-72
2023/05/03 12:07:09;;;;;;;;;;;17.10;48.80;;;;;;6246751;22;19938;-71
2023/05/03 12:09:36;;;;;;;;;;;17.10;49.00;;;;;;6274926;22;19961;-71
2023/05/03 12:12:04;;;;;;;;;;;17.10;48.30;;;;;;6274359;22;19911;-70
2023/05/03 12:14:57;;;;;;;;;;;17.10;48.30;;;;;;6273419;22;19945;-71
2023/05/03 12:17:36;;;;;;;;;;;17.10;48.20;;;;;;6268115;22;19914;-71
2023/05/03 12:20:22;;;;;;;;;;;17.10;47.80;;;;;;6275026;22;19945;-70
2023/05/03 12:22:52;;;;;;;;;;;17.10;48.30;;;;;;6274565;22;19903;-71
2023/05/03 12:25:19;;;;;;;;;;;17.10;47.70;;;;;;6247875;22;19904;-71
2023/05/03 12:27:46;;;;;;;;;;;17.10;47.20;;;;;;6274349;22;19935;-71
2023/05/03 12:30:13;;;;;;;;;;;17.10;46.90;;;;;;6274838;22;19907;-71
2023/05/03 12:32:40;;;;;;;;;;;17.10;47.20;;;;;;6274143;22;19957;-70
2023/05/03 12:35:10;;;;;;;;;;;17.00;47.00;;;;;;6275401;22;19911;-71
2023/05/03 12:37:36;;;;;;;;;;;17.00;47.20;;;;;;6248690;22;20333;-71
2023/05/03 12:40:04;;;;;;;;;;;17.00;47.60;;;;;;6276592;22;19903;-71
2023/05/03 12:42:31;;;;;;;;;;;17.00;48.00;;;;;;6276518;22;19904;-71
2023/05/03 12:44:58;;;;;;;;;;;17.00;47.90;;;;;;6276115;22;19907;-71
2023/05/03 12:47:25;;;;;;;;;;;17.00;47.90;;;;;;6275958;22;20298;-71
2023/05/03 12:49:52;;;;;;;;;;;17.00;47.50;;;;;;6249377;22;19903;-70
2023/05/03 12:52:20;;;;;;;;;;;17.00;47.40;;;;;;6276470;22;19931;-71
2023/05/03 12:54:47;;;;;;;;;;;16.90;47.40;;;;;;6275698;22;19938;-71
2023/05/03 12:57:14;;;;;;;;;;;16.90;47.40;;;;;;6275115;22;19926;-71
2023/05/03 12:59:41;;;;;;;;;;;16.90;48.20;;;;;;6275852;22;19903;-71
2023/05/03 13:02:09;;;;;;;;;;;16.80;47.50;;;;;;6249318;22;19903;-71
2023/05/03 13:04:35;;;;;;;;;;;16.90;47.20;;;;;;6249384;22;19931;-71
2023/05/03 13:07:02;;;;;;;;;;;16.80;47.10;;;;;;6275520;22;19935;-70
2023/05/03 13:09:29;;;;;;;;;;;16.80;46.90;;;;;;6276130;22;19903;-71
2023/05/03 13:11:58;;;;;;;;;;;16.80;46.80;;;;;;6276740;22;19911;-71
2023/05/03 13:14:25;;;;;;;;;;;16.80;46.20;;;;;;6275782;22;20277;-71
2023/05/03 13:16:51;;;;;;;;;;;16.70;46.30;;;;;;6275618;22;19910;-71
2023/05/03 13:19:18;;;;;;;;;;;16.70;46.60;;;;;;6275814;22;19903;-71
2023/05/03 13:21:46;;;;;;;;;;;16.70;46.20;;;;;;6249097;22;19914;-72
2023/05/03 13:24:13;;;;;;;;;;;16.70;46.20;;;;;;6249567;22;20248;-71
2023/05/03 13:26:40;;;;;;;;;;;16.80;46.20;;;;;;6275368;22;19903;-71
2023/05/03 13:29:06;;;;;;;;;;;16.70;46.50;;;;;;6276025;22;20207;-71
2023/05/03 13:31:33;;;;;;;;;;;16.70;46.40;;;;;;6276360;22;20219;-71
2023/05/03 13:34:00;;;;;;;;;;;16.70;47.20;;;;;;6276681;22;19907;-71
2023/05/03 13:36:28;;;;;;;;;;;16.60;47.10;;;;;;6275969;22;19912;-71
2023/05/03 13:38:55;;;;;;;;;;;16.60;47.20;;;;;;6247162;22;20329;-71
2023/05/03 13:41:21;;;;;;;;;;;16.60;47.00;;;;;;6276445;22;19961;-71
2023/05/03 14:08:16;;;;;;;;;;;16.40;47.30;;;;;;6274502;22;19922;-70
2023/05/03 14:10:43;;;;;;;;;;;16.40;47.20;;;;;;6275537;22;19986;-70
2023/05/03 14:13:10;;;;;;;;;;;16.30;46.60;;;;;;6275289;22;19949;-70
2023/05/03 14:15:41;;;;;;;;;;;16.30;46.40;;;;;;6275330;22;20345;-70
2023/05/03 14:18:08;;;;;;;;;;;16.30;46.80;;;;;;6248329;22;19978;-70
2023/05/03 14:20:35;;;;;;;;;;;16.30;46.70;;;;;;6275053;22;20234;-70
2023/05/03 14:23:02;;;;;;;;;;;16.30;46.90;;;;;;6275152;22;19910;-70
2023/05/03 14:25:30;;;;;;;;;;;16.30;47.00;;;;;;6274626;22;19903;-70
2023/05/03 14:27:56;;;;;;;;;;;16.30;47.80;;;;;;6248344;22;19907;-71
2023/05/03 14:30:23;;;;;;;;;;;16.20;47.10;;;;;;6274972;22;19903;-70
2023/05/03 14:32:51;;;;;;;;;;;16.20;47.00;;;;;;6275345;22;19903;-70
2023/05/03 14:35:18;;;;;;;;;;;16.20;47.00;;;;;;6275476;22;19911;-70
2023/05/03 14:37:46;;;;;;;;;;;16.20;47.30;;;;;;6275366;22;19930;-71
2023/05/03 14:40:13;;;;;;;;;;;16.20;47.10;;;;;;6247856;22;20219;-70
2023/05/03 14:42:39;;;;;;;;;;;16.20;47.70;;;;;;6275329;22;19916;-70
2023/05/03 14:45:07;;;;;;;;;;;16.20;47.40;;;;;;6274836;22;20388;-70
2023/05/03 14:47:34;;;;;;;;;;;16.20;47.80;;;;;;6274681;22;19904;-70
2023/05/03 14:50:00;;;;;;;;;;;16.20;47.30;;;;;;6274405;22;19903;-70
2023/05/03 14:52:27;;;;;;;;;;;16.20;47.40;;;;;;6275274;22;19911;-71
2023/05/03 14:54:54;;;;;;;;;;;16.20;47.50;;;;;;6275417;22;19907;-71
2023/05/03 14:57:20;;;;;;;;;;;16.10;47.80;;;;;;6274503;22;20323;-71
2023/05/03 14:59:48;;;;;;;;;;;16.10;47.70;;;;;;6274449;22;19903;-70
2023/05/03 15:02:15;;;;;;;;;;;16.00;48.00;;;;;;6274139;22;20345;-69
2023/05/03 15:04:42;;;;;;;;;;;16.00;48.10;;;;;;6275352;22;20208;-69
2023/05/03 15:07:08;;;;;;;;;;;16.00;48.00;;;;;;6275038;22;19961;-70
2023/05/03 15:09:36;;;;;;;;;;;16.00;48.50;;;;;;6275019;22;20376;-69
2023/05/03 15:12:03;;;;;;;;;;;16.00;48.20;;;;;;6274892;22;19903;-70
2023/05/03 15:14:30;;;;;;;;;;;16.00;48.40;;;;;;6274262;22;19994;-69
2023/05/03 15:16:57;;;;;;;;;;;16.00;48.60;;;;;;6275216;22;19911;-70
2023/05/03 15:19:25;;;;;;;;;;;16.00;48.60;;;;;;6275365;22;20289;-70
2023/05/03 15:21:52;;;;;;;;;;;16.00;48.90;;;;;;6275071;22;19908;-70
2023/05/03 15:24:18;;;;;;;;;;;16.00;49.00;;;;;;6275432;22;19907;-70
2023/05/03 15:26:45;;;;;;;;;;;16.00;49.00;;;;;;6274508;22;19907;-71
2023/05/03 15:29:12;;;;;;;;;;;15.90;49.00;;;;;;6275635;22;19965;-71
2023/05/03 15:31:39;;;;;;;;;;;15.90;49.10;;;;;;6275438;22;19952;-71
2023/05/03 15:34:06;;;;;;;;;;;15.90;49.50;;;;;;6274482;22;19913;-71
2023/05/03 15:36:33;;;;;;;;;;;15.80;49.50;;;;;;6246568;22;19965;-71
2023/05/03 15:38:59;;;;;;;;;;;15.80;50.10;;;;;;6274582;22;19911;-71
2023/05/03 15:41:26;;;;;;;;;;;15.80;50.40;;;;;;6274909;22;19957;-71
2023/05/03 15:43:54;;;;;;;;;;;15.70;49.90;;;;;;6274297;22;19938;-72
2023/05/03 15:46:21;;;;;;;;;;;15.70;49.70;;;;;;6274288;22;20211;-70
2023/05/03 15:48:47;;;;;;;;;;;15.70;50.40;;;;;;6274658;22;19950;-71
2023/05/03 15:51:14;;;;;;;;;;;15.70;50.40;;;;;;6274595;22;19914;-70
2023/05/03 15:53:45;;;;;;;;;;;15.70;50.20;;;;;;6273583;22;20288;-70
2023/05/03 15:56:12;;;;;;;;;;;15.70;50.70;;;;;;6274145;22;20254;-71
2023/05/03 15:58:38;;;;;;;;;;;15.70;50.70;;;;;;6274275;22;19904;-71
2023/05/03 16:01:05;;;;;;;;;;;15.70;51.00;;;;;;6275093;22;19918;-71
2023/05/03 16:03:32;;;;;;;;;;;15.60;51.20;;;;;;6275008;22;19910;-71
2023/05/03 16:05:58;;;;;;;;;;;15.60;51.20;;;;;;6273980;22;19903;-71
2023/05/03 16:08:25;;;;;;;;;;;15.60;51.40;;;;;;6274234;22;19926;-71
2023/05/03 16:10:52;;;;;;;;;;;15.50;51.80;;;;;;6276507;22;19925;-71
2023/05/03 16:13:19;;;;;;;;;;;15.50;51.70;;;;;;6276534;22;19910;-71
2023/05/03 16:15:47;;;;;;;;;;;15.50;51.60;;;;;;6276357;22;19915;-71
2023/05/03 16:18:13;;;;;;;;;;;15.50;52.10;;;;;;6275496;22;19908;-71
2023/05/03 16:20:40;;;;;;;;;;;15.40;52.00;;;;;;6276703;22;19942;-69
2023/05/03 16:23:07;;;;;;;;;;;15.40;52.90;;;;;;6248992;22;19907;-70
2023/05/03 16:25:34;;;;;;;;;;;15.40;53.00;;;;;;6276104;22;19908;-71
2023/05/03 16:28:01;;;;;;;;;;;15.30;52.70;;;;;;6275847;22;20235;-71
2023/05/03 16:30:28;;;;;;;;;;;15.30;52.80;;;;;;6276872;22;19903;-71
2023/05/03 16:32:54;;;;;;;;;;;15.30;52.90;;;;;;6276479;22;20298;-71
2023/05/03 16:35:21;;;;;;;;;;;15.30;53.20;;;;;;6276463;22;19930;-71
2023/05/03 16:37:48;;;;;;;;;;;15.30;53.00;;;;;;6276020;22;19915;-71
2023/05/03 16:40:15;;;;;;;;;;;15.20;53.80;;;;;;6249889;22;19982;-70
2023/05/03 16:42:42;;;;;;;;;;;15.20;53.80;;;;;;6276137;22;20229;-70
2023/05/03 16:45:09;;;;;;;;;;;15.20;53.70;;;;;;6276289;22;19978;-71
2023/05/03 16:47:36;;;;;;;;;;;15.20;53.80;;;;;;6275707;22;19918;-71
2023/05/03 16:50:04;;;;;;;;;;;15.20;54.10;;;;;;6249952;22;19903;-71
2023/05/03 16:52:32;;;;;;;;;;;15.20;54.60;;;;;;6276338;22;19911;-71
2023/05/03 16:54:58;;;;;;;;;;;15.10;54.40;;;;;;6275573;22;19911;-71
2023/05/03 16:57:26;;;;;;;;;;;15.10;54.70;;;;;;6275284;22;19926;-70
2023/05/03 16:59:52;;;;;;;;;;;15.00;54.60;;;;;;6276548;22;19903;-72
2023/05/03 17:02:20;;;;;;;;;;;15.00;54.70;;;;;;6276621;22;19910;-70
2023/05/03 17:04:47;;;;;;;;;;;15.00;54.30;;;;;;6275882;22;19907;-71
2023/05/03 17:07:14;;;;;;;;;;;15.10;54.10;;;;;;6275822;22;19961;-70
2023/05/03 17:09:40;;;;;;;;;;;15.00;54.30;;;;;;6276448;22;20215;-71
2023/05/03 17:12:07;;;;;;;;;;;15.00;54.20;;;;;;6276016;22;19956;-71
2023/05/03 17:14:34;;;;;;;;;;;15.00;54.40;;;;;;6276303;22;19904;-71
2023/05/03 17:17:00;;;;;;;;;;;15.00;54.50;;;;;;6274993;22;19911;-70
2023/05/03 17:19:27;;;;;;;;;;;15.00;54.30;;;;;;6249059;22;19957;-71
2023/05/03 17:21:54;;;;;;;;;;;14.90;55.00;;;;;;6274952;22;19909;-71
2023/05/03 17:24:21;;;;;;;;;;;14.90;54.90;;;;;;6276561;22;19903;-71
2023/05/03 17:26:48;;;;;;;;;;;14.90;55.30;;;;;;6276016;22;19941;-71
2023/05/03 17:29:15;;;;;;;;;;;14.90;55.20;;;;;;6276199;22;19907;-71
2023/05/03 17:31:42;;;;;;;;;;;14.80;55.40;;;;;;6276156;22;20358;-71
2023/05/03 17:34:08;;;;;;;;;;;14.80;55.20;;;;;;6275694;22;19986;-71
2023/05/03 17:36:35;;;;;;;;;;;14.80;55.90;;;;;;6274741;22;19922;-71
2023/05/03 17:39:02;;;;;;;;;;;14.80;55.10;;;;;;6275265;22;19903;-71
2023/05/03 17:41:29;;;;;;;;;;;14.70;55.10;;;;;;6276142;22;20269;-71
2023/05/03 17:43:56;;;;;;;;;;;14.70;55.80;;;;;;6275795;22;19903;-71
2023/05/03 17:46:23;;;;;;;;;;;14.70;55.10;;;;;;6275603;22;19914;-71
2023/05/03 17:48:50;;;;;;;;;;;14.70;55.40;;;;;;6275705;22;19907;-71
2023/05/03 17:51:17;;;;;;;;;;;14.70;55.30;;;;;;6276175;22;20275;-71
2023/05/03 17:53:44;;;;;;;;;;;14.70;55.90;;;;;;6275437;22;19986;-70
2023/05/03 17:56:14;;;;;;;;;;;14.70;55.90;;;;;;6275825;22;19918;-71
2023/05/03 17:58:41;;;;;;;;;;;14.60;56.30;;;;;;6275051;22;19903;-70
2023/05/03 18:01:09;;;;;;;;;;;14.60;56.20;;;;;;6249254;22;19903;-70
2023/05/03 18:03:40;;;;;;;;;;;14.70;56.00;;;;;;6276047;22;19950;-70
2023/05/03 18:06:08;;;;;;;;;;;14.60;56.20;;;;;;6223831;22;19942;-70
2023/05/03 18:08:34;;;;;;;;;;;14.60;56.40;;;;;;6275329;22;19904;-70
2023/05/03 18:11:01;;;;;;;;;;;14.60;56.40;;;;;;6248399;22;19910;-70
2023/05/03 18:13:28;;;;;;;;;;;14.60;56.70;;;;;;6248840;22;19907;-71
2023/05/03 18:15:55;;;;;;;;;;;14.60;57.60;;;;;;6275311;22;19923;-71
2023/05/03 18:18:21;;;;;;;;;;;14.50;56.90;;;;;;6248645;22;20211;-71
2023/05/03 18:21:01;;;;;;;;;;;14.50;57.30;;;;;;6275792;22;19978;-71
2023/05/03 18:23:27;;;;;;;;;;;14.40;57.50;;;;;;6275596;22;19931;-71
2023/05/03 18:25:54;;;;;;;;;;;14.30;57.50;;;;;;6274975;22;19903;-71
2023/05/03 18:28:22;;;;;;;;;;;14.40;57.90;;;;;;6274852;22;19904;-71
2023/05/03 18:30:52;;;;;;;;;;;14.40;57.60;;;;;;6275857;22;20266;-71
2023/05/03 18:33:18;;;;;;;;;;;14.30;58.40;;;;;;6276051;22;20332;-71
2023/05/03 18:35:48;;;;;;;;;;;14.30;58.10;;;;;;6274766;22;19911;-71
2023/05/03 18:38:16;;;;;;;;;;;14.30;57.80;;;;;;6248344;22;19922;-71
2023/05/03 18:40:42;;;;;;;;;;;14.30;57.90;;;;;;6248886;22;19911;-71
2023/05/03 18:43:09;;;;;;;;;;;14.20;59.50;;;;;;6274315;22;19907;-72
2023/05/03 18:45:36;;;;;;;;;;;14.20;59.60;;;;;;6248512;22;19903;-72
2023/05/03 18:48:03;;;;;;;;;;;14.20;60.10;;;;;;6275777;22;19968;-72
2023/05/03 18:50:30;;;;;;;;;;;14.10;59.40;;;;;;6249275;22;19918;-71
2023/05/03 18:52:57;;;;;;;;;;;14.10;59.40;;;;;;6276512;22;19915;-72
2023/05/03 18:55:24;;;;;;;;;;;14.10;60.40;;;;;;6275302;22;19911;-71
2023/05/03 18:57:51;;;;;;;;;;;14.00;61.10;;;;;;6246093;22;20341;-71
2023/05/03 19:00:18;;;;;;;;;;;13.90;60.90;;;;;;6275420;22;19914;-72
2023/05/03 19:02:45;;;;;;;;;;;13.80;60.70;;;;;;6248806;22;20397;-71
2023/05/03 19:05:11;;;;;;;;;;;13.80;60.90;;;;;;6275762;22;20022;-72
2023/05/03 19:07:41;;;;;;;;;;;13.70;60.90;;;;;;6275032;22;19908;-72
2023/05/03 19:10:09;;;;;;;;;;;13.70;60.50;;;;;;6247901;22;19907;-71
2023/05/03 22:11:06;;;;;;;;;;;14.00;61.80;;;;;;6271348;22;19930;-71
2023/05/03 22:13:35;;;;;;;;;;;13.90;60.40;;;;;;6245535;23;19997;-72
2023/05/03 22:16:04;;;;;;;;;;;14.00;60.20;;;;;;6194095;23;19993;-72
2023/05/03 22:18:31;;;;;;;;;;;14.00;60.60;;;;;;6218400;23;19903;-72
2023/05/03 22:20:58;;;;;;;;;;;14.10;61.00;;;;;;6245049;23;19927;-72
2023/05/03 22:23:25;;;;;;;;;;;14.10;60.50;;;;;;6245525;23;19903;-72
2023/05/03 22:25:51;;;;;;;;;;;14.20;61.20;;;;;;6245241;23;19911;-71
2023/05/03 22:28:18;;;;;;;;;;;14.20;61.20;;;;;;6244895;22;19956;-72
2023/05/03 22:30:45;;;;;;;;;;;14.20;60.40;;;;;;6245119;23;19981;-72
2023/05/03 22:33:12;;;;;;;;;;;14.30;61.10;;;;;;6218246;23;19903;-71
2023/05/03 22:35:39;;;;;;;;;;;14.30;61.00;;;;;;6218437;23;20385;-71
2023/05/03 22:38:06;;;;;;;;;;;14.30;60.00;;;;;;6245251;22;19911;-72
2023/05/03 22:40:32;;;;;;;;;;;14.30;59.20;;;;;;6218402;23;19911;-71
2023/05/03 22:42:59;;;;;;;;;;;14.30;58.80;;;;;;6245126;23;20306;-72
2023/05/03 22:45:26;;;;;;;;;;;14.40;59.40;;;;;;6244842;23;19911;-71
2023/05/03 22:47:53;;;;;;;;;;;14.40;59.90;;;;;;6245055;22;19911;-71
2023/05/03 22:50:20;;;;;;;;;;;14.50;59.50;;;;;;6218469;23;19904;-72
2023/05/03 22:52:46;;;;;;;;;;;14.50;58.30;;;;;;6218490;23;19946;-72
2023/05/03 22:55:13;;;;;;;;;;;14.60;57.50;;;;;;6218522;23;19911;-71
2023/05/03 22:57:40;;;;;;;;;;;14.70;57.30;;;;;;6244791;22;20385;-72
2023/05/03 23:00:09;;;;;;;;;;;14.70;57.00;;;;;;6243107;23;19979;-71
2023/05/03 23:02:35;;;;;;;;;;;14.70;57.10;;;;;;6244556;23;19911;-71
2023/05/03 23:05:02;;;;;;;;;;;14.70;57.20;;;;;;6217568;23;19904;-72
2023/05/03 23:07:29;;;;;;;;;;;14.70;57.90;;;;;;6244173;22;20230;-70
2023/05/03 23:10:02;;;;;;;;;;;14.80;57.30;;;;;;6217812;23;19911;-71
2023/05/03 23:12:29;;;;;;;;;;;14.80;56.60;;;;;;6244820;22;20343;-71
2023/05/03 23:14:55;;;;;;;;;;;14.80;57.70;;;;;;6243445;23;19987;-72
2023/05/03 23:17:22;;;;;;;;;;;14.90;56.90;;;;;;6244786;22;19904;-72
2023/05/03 23:19:49;;;;;;;;;;;14.90;57.00;;;;;;6244477;23;19990;-72
2023/05/03 23:22:15;;;;;;;;;;;14.90;57.10;;;;;;6244700;23;20000;-72
2023/05/03 23:24:42;;;;;;;;;;;15.00;56.70;;;;;;6244498;23;19939;-73
2023/05/03 23:27:11;;;;;;;;;;;15.00;56.10;;;;;;6245177;22;19943;-73
2023/05/03 23:29:38;;;;;;;;;;;15.00;57.30;;;;;;6245132;23;19962;-73
2023/05/03 23:32:05;;;;;;;;;;;15.10;57.10;;;;;;6245161;23;20372;-73
2023/05/03 23:34:31;;;;;;;;;;;15.20;56.90;;;;;;6244441;23;19907;-73
2023/05/03 23:36:58;;;;;;;;;;;15.20;56.80;;;;;;6243262;22;19970;-73
2023/05/03 23:39:25;;;;;;;;;;;15.20;56.20;;;;;;6245210;23;19907;-73
